createdAt,value
2023-01-17T00:00:18.445Z,86.26
2023-01-17T00:01:18.481Z,86.36
2023-01-17T00:02:18.290Z,86.57
2023-01-17T00:03:18.240Z,86.05
2023-01-17T00:04:18.285Z,86.26
2023-01-17T00:05:18.221Z,86.05
2023-01-17T00:06:18.982Z,86.88
2023-01-17T00:07:18.289Z,87.30
2023-01-17T00:12:54.304Z,88.48
2023-01-17T00:13:54.763Z,87.76
2023-01-17T00:14:54.297Z,88.28
2023-01-17T00:15:54.167Z,88.17
2023-01-17T00:16:54.113Z,88.59
2023-01-17T00:18:02.022Z,88.59
2023-01-17T00:18:54.247Z,88.79
2023-01-17T00:19:54.137Z,88.73
2023-01-17T00:20:55.448Z,88.52
2023-01-17T00:21:55.576Z,88.79
2023-01-17T00:22:55.267Z,88.69
2023-01-17T00:23:55.276Z,88.59
2023-01-17T00:24:55.161Z,88.79
2023-01-17T00:25:55.246Z,88.48
2023-01-17T00:26:55.174Z,88.52
2023-01-17T00:27:55.178Z,88.69
2023-01-17T00:28:55.150Z,88.21
2023-01-17T00:29:55.300Z,88.28
2023-01-17T00:34:36.054Z,88.17
2023-01-17T00:43:10.202Z,87.65
2023-01-17T00:44:10.266Z,87.65
2023-01-17T00:45:11.473Z,87.34
2023-01-17T00:46:11.343Z,87.55
2023-01-17T00:47:11.238Z,87.65
2023-01-17T00:48:11.287Z,87.86
2023-01-17T00:49:11.422Z,87.65
2023-01-17T00:50:11.246Z,87.55
2023-01-17T00:51:11.176Z,87.03
2023-01-17T00:52:11.189Z,86.82
2023-01-17T00:56:51.706Z,88.17
2023-01-17T00:57:53.123Z,87.86
2023-01-17T00:58:51.713Z,87.65
2023-01-17T00:59:52.393Z,87.03
2023-01-17T01:03:38.848Z,84.70
2023-01-17T01:04:38.392Z,85.53
2023-01-17T01:05:38.178Z,85.74
2023-01-17T01:06:38.211Z,85.95
2023-01-17T01:07:38.127Z,85.99
2023-01-17T01:08:38.089Z,85.64
2023-01-17T01:09:38.078Z,86.61
2023-01-17T01:10:38.016Z,85.99
2023-01-17T01:11:38.021Z,85.68
2023-01-17T01:12:38.018Z,86.41
2023-01-17T01:13:39.209Z,86.76
2023-01-17T01:14:39.661Z,86.19
2023-01-17T01:15:39.197Z,85.78
2023-01-17T01:16:39.187Z,85.47
2023-01-17T01:17:39.204Z,85.26
2023-01-17T01:18:39.269Z,84.74
2023-01-17T01:19:39.218Z,85.16
2023-01-17T01:20:39.213Z,85.57
2023-01-17T01:21:39.100Z,85.88
2023-01-17T01:22:39.060Z,86.24
2023-01-17T01:23:39.104Z,85.88
2023-01-17T01:24:39.265Z,86.09
2023-01-17T01:25:39.059Z,86.03
2023-01-17T01:26:39.064Z,85.72
2023-01-17T01:27:39.040Z,85.30
2023-01-17T01:28:39.003Z,85.82
2023-01-17T01:29:39.087Z,85.82
2023-01-17T01:30:39.156Z,85.72
2023-01-17T01:31:39.101Z,85.93
2023-01-17T01:32:39.893Z,86.44
2023-01-17T01:33:39.016Z,86.13
2023-01-17T01:34:38.960Z,86.03
2023-01-17T01:35:39.026Z,85.93
2023-01-17T01:36:38.988Z,85.93
2023-01-17T01:37:38.965Z,85.10
2023-01-17T01:38:38.930Z,85.41
2023-01-17T01:39:38.994Z,85.65
2023-01-17T01:40:38.953Z,85.93
2023-01-17T01:41:38.890Z,85.41
2023-01-17T01:42:38.934Z,85.72
2023-01-17T01:43:38.909Z,85.82
2023-01-17T01:44:38.892Z,85.51
2023-01-17T01:45:38.947Z,85.61
2023-01-17T01:46:38.877Z,85.10
2023-01-17T01:47:38.847Z,85.30
2023-01-17T01:48:38.855Z,85.72
2023-01-17T01:49:38.879Z,85.41
2023-01-17T01:50:38.849Z,85.51
2023-01-17T01:51:38.908Z,85.41
2023-01-17T01:52:38.798Z,85.51
2023-01-17T01:53:38.811Z,85.88
2023-01-17T01:54:38.794Z,86.03
2023-01-17T01:55:38.985Z,85.93
2023-01-17T01:56:38.745Z,85.88
2023-01-17T01:57:38.787Z,86.19
2023-01-17T01:58:38.730Z,85.47
2023-01-17T01:59:38.768Z,85.36
2023-01-17T02:00:38.755Z,85.47
2023-01-17T02:01:38.896Z,85.72
2023-01-17T02:02:38.789Z,85.16
2023-01-17T02:03:38.715Z,85.05
2023-01-17T02:04:38.677Z,85.88
2023-01-17T02:05:38.683Z,85.51
2023-01-17T02:06:38.794Z,85.47
2023-01-17T02:07:38.645Z,85.36
2023-01-17T02:08:38.601Z,84.74
2023-01-17T02:09:39.200Z,84.74
2023-01-17T02:10:38.633Z,84.74
2023-01-17T02:11:38.580Z,85.16
2023-01-17T02:12:38.644Z,85.26
2023-01-17T02:13:38.629Z,85.16
2023-01-17T02:14:38.625Z,85.30
2023-01-17T02:15:38.521Z,85.78
2023-01-17T02:16:38.668Z,85.30
2023-01-17T02:17:38.562Z,86.03
2023-01-17T02:18:38.645Z,85.93
2023-01-17T02:19:38.602Z,85.61
2023-01-17T02:20:38.521Z,85.72
2023-01-17T02:21:38.580Z,85.82
2023-01-17T02:22:38.462Z,85.72
2023-01-17T02:23:38.563Z,85.16
2023-01-17T02:24:38.486Z,85.82
2023-01-17T02:25:38.611Z,86.03
2023-01-17T02:26:38.450Z,86.65
2023-01-17T02:27:38.446Z,86.27
2023-01-17T02:28:38.401Z,86.44
2023-01-17T02:29:38.418Z,86.86
2023-01-17T02:30:38.593Z,87.07
2023-01-17T02:31:38.427Z,87.52
2023-01-17T02:32:38.411Z,87.38
2023-01-17T02:33:38.391Z,87.07
2023-01-17T02:34:38.464Z,87.07
2023-01-17T02:35:38.364Z,86.96
2023-01-17T02:36:38.423Z,86.86
2023-01-17T02:37:39.007Z,87.63
2023-01-17T02:38:38.347Z,86.86
2023-01-17T02:39:38.888Z,87.63
2023-01-17T02:40:38.290Z,87.73
2023-01-17T02:41:38.300Z,86.86
2023-01-17T02:42:38.313Z,85.93
2023-01-17T02:43:38.327Z,86.55
2023-01-17T02:44:38.289Z,86.76
2023-01-17T02:45:38.314Z,86.55
2023-01-17T02:46:38.284Z,86.55
2023-01-17T02:47:38.222Z,86.44
2023-01-17T02:48:38.227Z,86.13
2023-01-17T02:49:38.362Z,86.24
2023-01-17T02:50:38.197Z,86.61
2023-01-17T02:51:38.232Z,86.76
2023-01-17T02:52:38.172Z,86.34
2023-01-17T02:53:38.177Z,85.72
2023-01-17T02:54:38.259Z,86.24
2023-01-17T02:55:38.386Z,86.13
2023-01-17T02:56:38.137Z,86.03
2023-01-17T02:57:38.195Z,86.24
2023-01-17T02:58:38.142Z,86.24
2023-01-17T02:59:38.159Z,85.10
2023-01-17T03:00:38.136Z,84.58
2023-01-17T03:01:38.184Z,84.64
2023-01-17T03:02:38.315Z,85.10
2023-01-17T03:03:38.093Z,85.20
2023-01-17T03:04:38.081Z,84.99
2023-01-17T03:05:38.116Z,84.47
2023-01-17T03:06:38.101Z,84.78
2023-01-17T03:07:38.264Z,85.82
2023-01-17T03:10:23.012Z,85.41
2023-01-17T03:11:23.154Z,85.41
2023-01-17T03:12:27.147Z,84.68
2023-01-17T03:13:25.075Z,84.68
2023-01-17T03:14:25.492Z,84.47
2023-01-17T03:15:31.788Z,84.68
2023-01-17T03:16:25.525Z,84.78
2023-01-17T03:17:28.807Z,84.05
2023-01-17T03:18:31.731Z,84.89
2023-01-17T03:19:29.083Z,84.37
2023-01-17T03:20:27.673Z,84.89
2023-01-17T03:21:58.210Z,84.99
2023-01-17T03:22:26.330Z,85.03
2023-01-17T03:23:24.447Z,85.55
2023-01-17T03:24:48.024Z,84.51
2023-01-17T03:25:25.072Z,85.10
2023-01-17T03:26:57.992Z,84.78
2023-01-17T03:27:25.289Z,84.99
2023-01-17T03:28:25.363Z,85.82
2023-01-17T03:31:33.873Z,85.20
2023-01-17T03:32:43.780Z,84.82
2023-01-17T03:35:01.832Z,85.75
2023-01-17T03:36:14.226Z,86.38
2023-01-17T03:37:03.329Z,85.86
2023-01-17T03:38:01.791Z,85.86
2023-01-17T03:39:06.620Z,85.55
2023-01-17T03:41:49.691Z,86.27
2023-01-17T03:42:49.731Z,85.34
2023-01-17T03:43:50.470Z,85.34
2023-01-17T03:44:49.683Z,85.30
2023-01-17T03:47:23.902Z,85.65
2023-01-17T03:48:27.535Z,86.17
2023-01-17T03:49:23.389Z,86.17
2023-01-17T03:50:27.072Z,84.82
2023-01-17T03:51:24.015Z,84.92
2023-01-17T03:52:23.332Z,85.13
2023-01-17T03:53:26.112Z,84.72
2023-01-17T03:55:03.609Z,84.82
2023-01-17T03:55:24.821Z,85.03
2023-01-17T03:56:49.497Z,84.61
2023-01-17T03:57:26.218Z,84.92
2023-01-17T03:59:06.693Z,85.03
2023-01-17T03:59:31.143Z,85.44
2023-01-17T04:02:42.835Z,86.07
2023-01-17T04:03:48.249Z,85.55
2023-01-17T04:04:43.769Z,85.96
2023-01-17T04:05:46.309Z,85.55
2023-01-17T04:06:45.418Z,86.59
2023-01-17T04:07:49.046Z,85.86
2023-01-17T04:08:48.703Z,85.34
2023-01-17T04:10:23.222Z,85.34
2023-01-17T04:10:44.821Z,85.24
2023-01-17T04:11:45.367Z,85.65
2023-01-17T04:12:44.606Z,85.24
2023-01-17T04:13:45.325Z,85.44
2023-01-17T04:17:11.640Z,85.24
2023-01-17T04:18:11.925Z,85.65
2023-01-17T04:19:14.563Z,85.44
2023-01-17T04:20:19.465Z,85.13
2023-01-17T04:21:46.748Z,85.03
2023-01-17T04:22:15.748Z,85.03
2023-01-17T04:23:12.756Z,84.61
2023-01-17T04:24:40.932Z,85.03
2023-01-17T04:25:13.053Z,85.44
2023-01-17T04:26:13.072Z,84.75
2023-01-17T04:27:45.569Z,84.51
2023-01-17T04:28:42.749Z,84.51
2023-01-17T04:29:16.770Z,84.61
2023-01-17T04:30:48.243Z,84.92
2023-01-17T04:31:46.873Z,85.06
2023-01-17T04:32:13.253Z,84.96
2023-01-17T04:33:14.992Z,84.65
2023-01-17T04:34:14.209Z,84.75
2023-01-17T04:35:21.117Z,84.86
2023-01-17T04:36:19.401Z,84.75
2023-01-17T04:37:13.751Z,83.20
2023-01-17T04:38:15.313Z,83.37
2023-01-17T04:39:14.744Z,83.89
2023-01-17T04:42:16.603Z,84.23
2023-01-17T04:43:17.133Z,84.55
2023-01-17T04:44:17.057Z,83.37
2023-01-17T04:45:52.867Z,83.61
2023-01-17T04:46:20.057Z,83.82
2023-01-17T04:47:17.922Z,83.61
2023-01-17T04:48:20.751Z,83.40
2023-01-17T04:49:22.563Z,83.72
2023-01-17T04:50:19.445Z,83.72
2023-01-17T04:51:18.725Z,83.40
2023-01-17T04:52:19.713Z,83.72
2023-01-17T04:53:17.755Z,83.75
2023-01-17T04:54:18.091Z,83.82
2023-01-17T04:55:18.428Z,83.61
2023-01-17T04:56:17.741Z,83.72
2023-01-17T04:57:18.635Z,83.20
2023-01-17T04:58:59.959Z,82.15
2023-01-17T04:59:18.429Z,82.15
2023-01-17T05:00:53.364Z,82.68
2023-01-17T05:01:18.025Z,83.20
2023-01-17T05:03:03.458Z,83.23
2023-01-17T05:03:20.296Z,83.75
2023-01-17T05:04:53.610Z,83.34
2023-01-17T05:05:20.457Z,84.06
2023-01-17T05:06:19.944Z,84.27
2023-01-17T05:07:44.368Z,83.03
2023-01-17T05:09:01.583Z,84.31
2023-01-17T05:09:56.590Z,84.38
2023-01-17T05:10:53.686Z,84.52
2023-01-17T05:11:25.247Z,84.38
2023-01-17T05:12:29.258Z,84.80
2023-01-17T05:16:45.275Z,85.04
2023-01-17T05:21:04.639Z,84.73
2023-01-17T05:22:16.559Z,84.83
2023-01-17T05:23:35.946Z,84.63
2023-01-17T05:24:12.829Z,84.63
2023-01-17T05:27:40.151Z,84.98
2023-01-17T05:28:50.550Z,84.77
2023-01-17T05:31:10.251Z,85.19
2023-01-17T05:32:13.150Z,84.77
2023-01-17T05:33:10.370Z,85.08
2023-01-17T05:34:23.178Z,84.98
2023-01-17T05:35:24.918Z,85.02
2023-01-17T05:36:19.217Z,84.66
2023-01-17T05:39:09.212Z,85.64
2023-01-17T05:40:09.254Z,85.12
2023-01-17T05:41:09.184Z,84.98
2023-01-17T05:42:09.417Z,84.98
2023-01-17T05:43:09.522Z,85.08
2023-01-17T05:44:17.955Z,84.98
2023-01-17T05:45:11.765Z,85.29
2023-01-17T05:46:42.639Z,84.77
2023-01-17T05:47:37.055Z,83.52
2023-01-17T05:48:14.154Z,84.77
2023-01-17T05:49:10.151Z,85.14
2023-01-17T05:50:10.164Z,85.46
2023-01-17T05:51:10.319Z,84.98
2023-01-17T05:52:10.307Z,84.77
2023-01-17T05:53:10.367Z,85.29
2023-01-17T05:54:10.047Z,85.29
2023-01-17T05:55:10.722Z,85.39
2023-01-17T05:56:10.288Z,84.98
2023-01-17T05:57:10.383Z,84.98
2023-01-17T05:58:10.368Z,84.66
2023-01-17T05:59:11.092Z,84.73
2023-01-17T06:00:10.768Z,84.25
2023-01-17T06:01:10.154Z,83.52
2023-01-17T06:02:10.115Z,83.20
2023-01-17T06:03:10.093Z,83.69
2023-01-17T06:04:10.772Z,84.00
2023-01-17T06:05:10.301Z,83.69
2023-01-17T06:06:10.043Z,83.80
2023-01-17T06:07:10.068Z,83.48
2023-01-17T06:08:10.090Z,83.94
2023-01-17T06:09:10.091Z,83.80
2023-01-17T06:10:09.985Z,83.69
2023-01-17T06:11:10.030Z,84.45
2023-01-17T06:12:09.957Z,84.31
2023-01-17T06:13:09.898Z,84.52
2023-01-17T06:14:09.955Z,84.52
2023-01-17T06:15:09.915Z,84.45
2023-01-17T06:16:11.437Z,84.31
2023-01-17T06:17:30.188Z,84.04
2023-01-17T06:18:11.620Z,83.73
2023-01-17T06:19:10.005Z,82.96
2023-01-17T06:32:31.094Z,83.94
2023-01-17T06:33:31.151Z,84.04
2023-01-17T06:34:31.177Z,84.04
2023-01-17T06:35:31.148Z,83.73
2023-01-17T06:36:31.275Z,84.35
2023-01-17T06:37:31.005Z,83.73
2023-01-17T06:38:38.795Z,83.62
2023-01-17T06:39:31.130Z,82.89
2023-01-17T06:40:32.612Z,83.00
2023-01-17T06:41:32.892Z,83.31
2023-01-17T06:42:32.744Z,83.62
2023-01-17T06:43:32.454Z,83.27
2023-01-17T06:44:32.299Z,83.83
2023-01-17T06:45:32.256Z,83.42
2023-01-17T06:46:32.121Z,82.68
2023-01-17T06:47:32.337Z,82.86
2023-01-17T06:48:32.320Z,83.06
2023-01-17T06:49:32.235Z,83.37
2023-01-17T06:50:32.342Z,83.06
2023-01-17T06:51:32.227Z,83.00
2023-01-17T06:53:05.096Z,81.71
2023-01-17T06:54:06.134Z,82.13
2023-01-17T06:54:33.853Z,82.89
2023-01-17T06:56:11.475Z,83.73
2023-01-17T06:57:16.105Z,83.83
2023-01-17T06:57:35.448Z,84.66
2023-01-17T06:59:02.067Z,84.45
2023-01-17T06:59:34.387Z,84.98
2023-01-17T07:00:32.033Z,84.60
2023-01-17T07:01:32.167Z,84.98
2023-01-17T07:02:32.241Z,84.87
2023-01-17T07:03:32.055Z,84.87
2023-01-17T07:04:32.154Z,85.60
2023-01-17T07:05:32.371Z,86.12
2023-01-17T07:07:05.685Z,86.22
2023-01-17T07:07:37.773Z,86.37
2023-01-17T07:09:02.312Z,86.06
2023-01-17T07:09:33.561Z,86.47
2023-01-17T07:11:10.479Z,86.47
2023-01-17T07:11:32.684Z,86.47
2023-01-17T07:13:10.233Z,86.16
2023-01-17T07:13:34.824Z,85.96
2023-01-17T07:14:32.363Z,86.68
2023-01-17T07:15:32.620Z,86.79
2023-01-17T07:16:56.304Z,86.68
2023-01-17T07:17:33.286Z,86.06
2023-01-17T07:18:33.530Z,86.68
2023-01-17T07:19:32.825Z,87.10
2023-01-17T07:20:46.665Z,87.62
2023-01-17T07:21:33.601Z,87.73
2023-01-17T07:22:32.159Z,88.39
2023-01-17T07:23:31.810Z,88.35
2023-01-17T07:24:32.280Z,88.66
2023-01-17T07:25:59.783Z,88.49
2023-01-17T07:27:07.115Z,88.18
2023-01-17T07:28:00.058Z,87.10
2023-01-17T07:28:32.223Z,87.20
2023-01-17T07:29:32.413Z,87.93
2023-01-17T07:30:31.889Z,87.62
2023-01-17T07:31:31.996Z,87.20
2023-01-17T07:32:31.875Z,87.45
2023-01-17T07:33:32.012Z,87.45
2023-01-17T07:34:31.883Z,87.35
2023-01-17T07:35:53.555Z,88.29
2023-01-17T07:37:05.300Z,87.76
2023-01-17T07:37:31.959Z,88.18
2023-01-17T07:38:58.297Z,88.18
2023-01-17T07:40:04.884Z,88.91
2023-01-17T07:41:09.860Z,88.91
2023-01-17T07:41:31.990Z,88.64
2023-01-17T07:42:39.246Z,89.16
2023-01-17T07:43:32.631Z,89.06
2023-01-17T07:44:33.476Z,89.16
2023-01-17T07:45:34.026Z,89.26
2023-01-17T07:46:31.966Z,89.16
2023-01-17T07:47:31.930Z,89.10
2023-01-17T07:48:31.859Z,89.06
2023-01-17T07:49:32.411Z,88.95
2023-01-17T07:50:31.546Z,89.37
2023-01-17T07:51:31.706Z,89.68
2023-01-17T07:52:32.083Z,89.68
2023-01-17T07:53:32.682Z,89.68
2023-01-17T07:54:31.969Z,89.89
2023-01-17T07:55:32.310Z,89.78
2023-01-17T07:56:31.447Z,89.89
2023-01-17T07:58:05.526Z,90.00
2023-01-17T07:58:31.910Z,89.47
2023-01-17T07:59:32.070Z,89.78
2023-01-17T08:00:31.832Z,89.26
2023-01-17T08:02:06.805Z,88.95
2023-01-17T08:02:32.173Z,88.95
2023-01-17T08:04:04.052Z,88.12
2023-01-17T08:04:32.116Z,88.22
2023-01-17T08:05:31.485Z,87.18
2023-01-17T08:06:31.515Z,87.60
2023-01-17T08:07:31.625Z,87.18
2023-01-17T08:08:31.622Z,87.91
2023-01-17T08:09:31.498Z,87.70
2023-01-17T08:10:31.334Z,87.39
2023-01-17T08:11:31.525Z,87.70
2023-01-17T08:12:31.470Z,88.01
2023-01-17T08:13:31.989Z,87.81
2023-01-17T08:14:31.761Z,88.01
2023-01-17T08:15:31.504Z,88.01
2023-01-17T08:16:31.955Z,88.22
2023-01-17T08:17:31.572Z,88.43
2023-01-17T08:18:31.250Z,88.64
2023-01-17T08:19:31.905Z,88.43
2023-01-17T08:20:31.750Z,88.53
2023-01-17T08:21:31.721Z,88.32
2023-01-17T08:22:31.472Z,88.53
2023-01-17T08:24:10.545Z,88.81
2023-01-17T08:24:31.713Z,88.64
2023-01-17T08:25:31.481Z,88.32
2023-01-17T08:26:31.301Z,88.39
2023-01-17T08:27:31.152Z,88.39
2023-01-17T08:28:32.340Z,87.87
2023-01-17T08:29:31.931Z,87.87
2023-01-17T08:30:32.096Z,87.35
2023-01-17T08:31:31.555Z,87.24
2023-01-17T08:32:31.380Z,87.41
2023-01-17T08:33:31.769Z,86.83
2023-01-17T08:34:31.382Z,86.89
2023-01-17T08:35:32.139Z,86.68
2023-01-17T08:36:32.477Z,86.68
2023-01-17T08:37:32.056Z,86.79
2023-01-17T08:38:31.453Z,86.75
2023-01-17T08:39:31.077Z,86.43
2023-01-17T08:40:31.502Z,87.30
2023-01-17T08:41:31.921Z,87.30
2023-01-17T08:42:31.442Z,87.83
2023-01-17T08:43:31.300Z,87.62
2023-01-17T08:44:31.179Z,86.89
2023-01-17T08:45:32.989Z,87.62
2023-01-17T08:46:32.856Z,87.10
2023-01-17T08:47:36.860Z,86.99
2023-01-17T08:48:38.325Z,86.06
2023-01-17T08:49:33.978Z,86.89
2023-01-17T08:50:31.556Z,86.58
2023-01-17T08:51:31.222Z,86.37
2023-01-17T08:53:10.195Z,86.58
2023-01-17T08:53:33.538Z,86.06
2023-01-17T08:54:44.551Z,86.79
2023-01-17T08:55:36.754Z,86.27
2023-01-17T08:56:36.923Z,86.27
2023-01-17T08:57:49.793Z,86.68
2023-01-17T08:58:51.536Z,87.20
2023-01-17T08:59:35.377Z,87.73
2023-01-17T09:01:00.382Z,87.73
2023-01-17T09:01:34.175Z,88.39
2023-01-17T09:02:33.314Z,89.12
2023-01-17T09:03:50.483Z,88.91
2023-01-17T09:04:32.335Z,89.58
2023-01-17T09:07:31.485Z,90.52
2023-01-17T09:08:31.439Z,91.25
2023-01-17T09:09:40.201Z,91.18
2023-01-17T09:10:35.526Z,91.46
2023-01-17T09:11:38.734Z,92.50
2023-01-17T09:13:38.261Z,92.50
2023-01-17T09:13:42.481Z,93.27
2023-01-17T09:14:42.948Z,92.96
2023-01-17T09:16:16.042Z,93.27
2023-01-17T09:20:08.127Z,94.00
2023-01-17T09:21:22.040Z,94.42
